createdAt,value
2022-12-01T00:02:08.899Z,13.70
2022-12-01T00:05:12.045Z,15.55
2022-12-01T00:08:14.875Z,15.45
2022-12-01T00:11:17.880Z,14.68
2022-12-01T00:14:20.361Z,14.75
2022-12-01T00:17:23.439Z,13.88
2022-12-01T00:20:26.133Z,14.17
2022-12-01T00:23:29.204Z,15.70
2022-12-01T00:26:31.678Z,13.73
2022-12-01T00:29:34.701Z,13.88
2022-12-01T00:32:37.668Z,15.75
2022-12-01T00:35:40.716Z,14.73
2022-12-01T00:38:43.258Z,15.02
2022-12-01T00:41:46.280Z,13.88
2022-12-01T00:44:48.962Z,13.87
2022-12-01T00:47:51.990Z,13.57
2022-12-01T00:50:55.991Z,13.73
2022-12-01T00:53:59.337Z,14.57
2022-12-01T00:57:01.822Z,14.23
2022-12-01T01:00:05.953Z,14.60
2022-12-01T01:03:08.903Z,16.10
2022-12-01T01:09:15.940Z,13.82
2022-12-01T01:12:18.950Z,13.20
2022-12-01T01:15:21.864Z,13.60
2022-12-01T01:21:27.940Z,13.38
2022-12-01T01:24:30.998Z,13.45
2022-12-01T01:27:34.811Z,13.75
2022-12-01T01:30:40.384Z,13.20
2022-12-01T01:33:43.564Z,14.27
2022-12-01T01:36:46.636Z,13.38
2022-12-01T01:39:49.300Z,13.17
2022-12-01T01:42:52.532Z,14.70
2022-12-01T01:45:55.028Z,13.17
2022-12-01T01:49:01.997Z,14.15
2022-12-01T01:52:04.970Z,15.00
2022-12-01T01:55:10.124Z,14.18
2022-12-01T01:58:12.751Z,14.57
2022-12-01T02:01:16.282Z,14.87
2022-12-01T02:04:20.615Z,15.23
2022-12-01T02:07:23.421Z,14.63
2022-12-01T02:10:40.299Z,14.52
2022-12-01T02:13:55.361Z,15.60
2022-12-01T02:17:29.205Z,14.70
2022-12-01T02:20:53.258Z,14.77
2022-12-01T02:24:08.863Z,14.25
2022-12-01T02:27:31.549Z,14.40
2022-12-01T02:30:40.648Z,13.70
2022-12-01T02:34:18.691Z,14.63
2022-12-01T02:37:33.257Z,14.82
2022-12-01T02:40:53.027Z,14.50
2022-12-01T02:44:20.690Z,14.45
2022-12-01T02:47:23.890Z,13.70
2022-12-01T02:50:29.634Z,14.98
2022-12-01T02:53:32.491Z,13.95
2022-12-01T02:56:35.273Z,15.10
2022-12-01T02:59:38.241Z,15.10
2022-12-01T03:02:55.560Z,14.35
2022-12-01T03:05:58.390Z,14.43
2022-12-01T03:09:09.281Z,12.98
2022-12-01T03:12:35.601Z,14.23
2022-12-01T03:15:41.084Z,14.87
2022-12-01T03:19:13.652Z,15.07
2022-12-01T03:22:36.534Z,15.27
2022-12-01T03:25:45.729Z,13.48
2022-12-01T03:28:56.995Z,14.05
2022-12-01T03:32:04.933Z,15.10
2022-12-01T03:35:14.525Z,13.35
2022-12-01T03:38:29.251Z,14.02
2022-12-01T03:41:50.625Z,14.23
2022-12-01T03:45:00.919Z,18.25
2022-12-01T03:48:03.941Z,19.55
2022-12-01T03:51:18.048Z,14.10
2022-12-01T03:54:45.375Z,14.45
2022-12-01T03:58:00.441Z,13.43
2022-12-01T04:01:04.656Z,14.95
2022-12-01T04:04:11.824Z,14.07
2022-12-01T04:07:14.870Z,13.32
2022-12-01T04:10:18.216Z,14.65
2022-12-01T04:13:23.500Z,13.18
2022-12-01T04:16:26.612Z,14.18
2022-12-01T04:19:29.180Z,13.60
2022-12-01T04:22:33.214Z,16.02
2022-12-01T04:28:38.745Z,16.05
2022-12-01T04:31:41.870Z,13.52
2022-12-01T04:37:47.317Z,12.65
2022-12-01T04:40:50.351Z,25.45
2022-12-01T04:43:54.655Z,14.73
2022-12-01T04:46:57.827Z,13.40
2022-12-01T04:50:00.604Z,12.10
2022-12-01T04:53:04.646Z,14.07
2022-12-01T04:59:10.410Z,12.07
2022-12-01T05:02:12.940Z,13.68
2022-12-01T05:05:16.219Z,11.77
2022-12-01T05:08:18.723Z,12.73
2022-12-01T05:11:22.359Z,13.43
2022-12-01T05:14:24.971Z,13.00
2022-12-01T05:17:35.516Z,12.98
2022-12-01T05:20:57.617Z,13.13
2022-12-01T05:24:00.627Z,13.45
2022-12-01T05:27:03.143Z,13.10
2022-12-01T05:30:06.845Z,13.75
2022-12-01T05:33:09.278Z,13.77
2022-12-01T05:36:12.330Z,14.02
2022-12-01T05:39:14.872Z,14.10
2022-12-01T05:42:17.917Z,13.85
2022-12-01T05:45:20.394Z,14.87
2022-12-01T05:48:23.615Z,14.73
2022-12-01T05:51:26.121Z,13.63
2022-12-01T05:54:30.459Z,14.02
2022-12-01T05:57:33.838Z,14.32
2022-12-01T06:00:43.875Z,14.57
2022-12-01T06:03:48.401Z,13.82
2022-12-01T06:06:51.390Z,15.57
2022-12-01T06:09:54.493Z,14.45
2022-12-01T06:12:57.232Z,15.00
2022-12-01T06:16:03.026Z,17.00
2022-12-01T06:19:05.807Z,17.12
2022-12-01T06:22:08.524Z,17.92
2022-12-01T06:25:11.528Z,17.02
2022-12-01T06:28:14.665Z,17.77
2022-12-01T06:31:17.481Z,18.83
2022-12-01T06:34:20.266Z,19.10
2022-12-01T06:37:23.074Z,19.35
2022-12-01T06:40:26.175Z,19.73
2022-12-01T06:43:29.739Z,20.17
2022-12-01T06:46:32.882Z,21.30
2022-12-01T06:49:37.986Z,20.30
2022-12-01T06:52:40.710Z,19.67
2022-12-01T06:55:43.460Z,20.40
2022-12-01T06:58:46.590Z,21.25
2022-12-01T07:01:49.669Z,23.08
2022-12-01T07:04:52.564Z,21.83
2022-12-01T07:07:59.490Z,22.45
2022-12-01T07:11:08.955Z,21.98
2022-12-01T07:14:26.757Z,22.83
2022-12-01T07:17:30.387Z,21.12
2022-12-01T07:20:33.142Z,21.00
2022-12-01T07:23:36.540Z,20.60
2022-12-01T07:26:41.172Z,21.67
2022-12-01T07:29:44.080Z,22.23
2022-12-01T07:32:46.827Z,21.40
2022-12-01T07:35:49.632Z,19.30
2022-12-01T07:38:52.341Z,19.48
2022-12-01T07:41:55.254Z,21.42
2022-12-01T07:44:58.021Z,20.73
2022-12-01T07:48:00.827Z,21.02
2022-12-01T07:51:07.950Z,23.45
2022-12-01T07:54:14.299Z,21.42
2022-12-01T07:57:18.245Z,22.77
2022-12-01T08:00:21.422Z,21.08
2022-12-01T08:06:29.044Z,21.67
2022-12-01T08:09:34.671Z,25.10
2022-12-01T08:12:37.388Z,22.85
2022-12-01T08:15:40.509Z,22.25
2022-12-01T08:18:43.811Z,25.43
2022-12-01T08:21:46.996Z,24.33
2022-12-01T08:24:49.491Z,25.10
2022-12-01T08:27:52.587Z,25.10
2022-12-01T08:30:55.363Z,22.10
2022-12-01T08:37:00.831Z,21.00
2022-12-01T08:43:06.548Z,21.90
2022-12-01T08:49:12.319Z,21.83
2022-12-01T08:52:15.463Z,21.48
2022-12-01T08:55:18.929Z,21.55
2022-12-01T08:58:22.025Z,21.10
2022-12-01T09:01:25.976Z,21.83
2022-12-01T09:04:29.464Z,21.00
2022-12-01T09:07:33.149Z,21.55
2022-12-01T09:10:36.254Z,21.12
2022-12-01T09:13:40.139Z,21.90
2022-12-01T09:16:44.897Z,22.83
2022-12-01T09:19:47.752Z,22.42
2022-12-01T09:22:51.369Z,21.80
2022-12-01T09:25:53.952Z,20.92
2022-12-01T09:28:59.938Z,21.55
2022-12-01T09:32:02.732Z,20.85
2022-12-01T09:35:05.917Z,21.08
2022-12-01T09:38:08.546Z,23.10
2022-12-01T09:41:19.166Z,21.00
2022-12-01T09:44:30.692Z,22.20
2022-12-01T09:47:37.611Z,20.10
2022-12-01T09:50:40.519Z,19.25
2022-12-01T09:53:45.010Z,18.00
2022-12-01T09:56:53.139Z,17.33
2022-12-01T09:59:58.207Z,16.62
2022-12-01T10:03:22.023Z,15.35
2022-12-01T10:06:35.433Z,15.55
2022-12-01T10:09:43.106Z,14.02
2022-12-01T10:12:48.607Z,14.77
2022-12-01T10:15:54.088Z,14.77
2022-12-01T10:19:08.927Z,15.38
2022-12-01T10:22:44.384Z,14.60
2022-12-01T10:25:59.961Z,15.75
2022-12-01T10:29:45.065Z,16.27
2022-12-01T10:32:56.261Z,15.70
2022-12-01T10:35:58.990Z,15.55
2022-12-01T10:39:06.787Z,15.88
2022-12-01T10:42:39.736Z,14.05
2022-12-01T10:45:45.026Z,14.25
2022-12-01T10:48:56.593Z,14.35
2022-12-01T10:51:59.909Z,15.13
2022-12-01T10:55:04.998Z,14.57
2022-12-01T10:58:19.281Z,15.43
2022-12-01T11:01:39.753Z,14.45
2022-12-01T11:04:46.626Z,14.93
2022-12-01T11:07:49.923Z,15.68
2022-12-01T11:10:53.091Z,15.25
2022-12-01T11:13:58.137Z,14.90
2022-12-01T11:17:33.675Z,15.48
2022-12-01T11:20:41.059Z,15.75
2022-12-01T11:23:49.242Z,15.82
2022-12-01T11:26:51.857Z,14.35
2022-12-01T11:29:57.720Z,15.60
2022-12-01T11:33:03.362Z,14.15
2022-12-01T11:36:11.825Z,16.08
2022-12-01T11:39:34.189Z,15.77
2022-12-01T11:42:40.304Z,16.02
2022-12-01T11:45:45.037Z,15.70
2022-12-01T11:48:58.532Z,16.58
2022-12-01T11:52:24.344Z,15.70
2022-12-01T11:55:29.764Z,15.32
2022-12-01T11:58:32.305Z,15.02
2022-12-01T12:02:03.128Z,15.18
2022-12-01T12:05:37.648Z,15.27
2022-12-01T12:09:13.177Z,13.82
2022-12-01T12:12:21.925Z,13.60
2022-12-01T12:19:00.323Z,14.25
2022-12-01T12:22:18.103Z,15.15
2022-12-01T12:25:53.036Z,15.13
2022-12-01T12:29:43.807Z,14.55
2022-12-01T12:33:12.599Z,14.98
2022-12-01T12:36:46.290Z,13.98
2022-12-01T12:39:49.378Z,14.00
2022-12-01T12:43:14.304Z,14.30
2022-12-01T12:46:27.587Z,13.00
2022-12-01T12:49:54.891Z,15.15
2022-12-01T12:53:04.682Z,13.77
2022-12-01T12:56:12.526Z,15.77
2022-12-01T12:59:31.713Z,14.75
2022-12-01T13:02:38.409Z,14.82
2022-12-01T13:05:45.129Z,13.93
2022-12-01T13:09:10.358Z,15.02
2022-12-01T13:12:20.007Z,14.93
2022-12-01T13:15:23.117Z,15.35
2022-12-01T13:21:37.372Z,15.15
2022-12-01T13:24:41.095Z,14.80
2022-12-01T13:27:45.734Z,15.18
2022-12-01T13:31:05.848Z,15.05
2022-12-01T13:34:20.834Z,13.95
2022-12-01T13:37:38.788Z,13.68
2022-12-01T13:40:41.652Z,14.40
2022-12-01T13:43:56.733Z,14.45
2022-12-01T13:47:05.315Z,14.25
2022-12-01T13:50:39.192Z,14.43
2022-12-01T13:54:27.030Z,14.32
2022-12-01T13:57:32.535Z,14.50
2022-12-01T14:00:35.593Z,14.75
2022-12-01T14:03:40.728Z,14.45
2022-12-01T14:06:50.159Z,13.15
2022-12-01T14:09:57.631Z,11.82
2022-12-01T14:13:06.015Z,12.05
2022-12-01T14:16:09.724Z,10.85
2022-12-01T14:19:30.382Z,11.07
2022-12-01T14:22:37.576Z,10.88
2022-12-01T14:25:41.530Z,11.23
2022-12-01T14:28:59.776Z,11.90
2022-12-01T14:32:04.404Z,12.02
2022-12-01T14:35:11.977Z,12.43
2022-12-01T14:38:15.217Z,11.68
2022-12-01T14:41:25.988Z,12.93
2022-12-01T14:44:33.355Z,12.07
2022-12-01T14:47:46.799Z,12.18
2022-12-01T14:50:53.538Z,12.37
2022-12-01T14:53:58.603Z,12.25
2022-12-01T14:57:06.901Z,11.65
2022-12-01T15:00:21.766Z,11.90
2022-12-01T15:03:30.509Z,10.13
2022-12-01T15:06:36.646Z,10.38
2022-12-01T15:09:58.905Z,12.32
2022-12-01T15:13:24.844Z,13.05
2022-12-01T15:16:32.786Z,13.27
2022-12-01T15:19:41.255Z,12.98
2022-12-01T15:22:44.112Z,13.75
2022-12-01T15:25:46.987Z,10.77
2022-12-01T15:28:50.554Z,11.18
2022-12-01T15:31:57.015Z,10.52
2022-12-01T15:35:05.429Z,12.55
2022-12-01T15:38:20.895Z,13.75
2022-12-01T15:41:29.335Z,12.18
2022-12-01T15:44:36.322Z,12.80
2022-12-01T15:47:45.583Z,13.05
2022-12-01T15:51:01.143Z,11.65
2022-12-01T15:54:04.179Z,11.70
2022-12-01T15:57:07.315Z,11.00
2022-12-01T16:00:19.985Z,12.60
2022-12-01T16:03:22.862Z,10.35
2022-12-01T16:06:39.359Z,11.88
2022-12-01T16:10:00.269Z,12.48
2022-12-01T16:13:40.424Z,15.77
2022-12-01T16:16:47.274Z,13.82
2022-12-01T16:20:24.364Z,15.10
2022-12-01T16:23:27.261Z,13.98
2022-12-01T16:26:31.806Z,14.10
2022-12-01T16:29:48.123Z,14.98
2022-12-01T16:32:51.486Z,14.95
2022-12-01T16:35:54.556Z,16.20
2022-12-01T16:38:57.420Z,13.95
2022-12-01T16:42:00.828Z,13.65
2022-12-01T16:45:04.264Z,12.85
2022-12-01T16:48:09.418Z,12.63
2022-12-01T16:51:14.586Z,13.45
2022-12-01T16:54:17.491Z,12.65
2022-12-01T16:57:20.216Z,13.20
2022-12-01T17:00:23.522Z,12.50
2022-12-01T17:06:30.095Z,12.82
2022-12-01T17:09:33.101Z,13.27
2022-12-01T17:12:36.238Z,13.50
2022-12-01T17:15:43.278Z,13.70
2022-12-01T17:18:46.111Z,14.45
2022-12-01T17:21:48.936Z,13.10
2022-12-01T17:24:52.009Z,13.98
2022-12-01T17:27:55.398Z,17.23
2022-12-01T17:34:04.725Z,12.77
2022-12-01T17:37:08.072Z,13.90
2022-12-01T17:40:14.772Z,15.07
2022-12-01T17:43:17.609Z,14.05
2022-12-01T17:46:20.493Z,15.23
2022-12-01T17:49:23.267Z,15.45
2022-12-01T17:52:28.555Z,16.45
2022-12-01T17:55:31.486Z,18.37
2022-12-01T17:58:34.553Z,19.55
2022-12-01T18:01:37.565Z,18.83
2022-12-01T18:04:40.858Z,19.95
2022-12-01T18:07:43.439Z,20.12
2022-12-01T18:10:46.546Z,20.65
2022-12-01T18:13:50.717Z,21.50
2022-12-01T18:16:54.979Z,23.55
2022-12-01T18:19:57.487Z,24.33
2022-12-01T18:23:00.577Z,20.50
2022-12-01T18:26:15.180Z,23.73
2022-12-01T18:29:26.017Z,22.65
2022-12-01T18:32:28.835Z,21.17
2022-12-01T18:35:32.211Z,22.92
2022-12-01T18:38:34.806Z,21.58
2022-12-01T18:41:38.474Z,22.50
2022-12-01T18:44:42.398Z,22.92
2022-12-01T18:47:45.746Z,21.75
2022-12-01T18:50:48.642Z,21.02
2022-12-01T18:54:00.737Z,21.52
2022-12-01T18:57:03.664Z,21.90
2022-12-01T19:00:08.086Z,23.92
2022-12-01T19:03:10.657Z,24.37
2022-12-01T19:06:13.876Z,23.00
2022-12-01T19:09:16.620Z,24.73
2022-12-01T19:12:19.668Z,25.88
2022-12-01T19:15:22.797Z,25.27
2022-12-01T19:18:25.931Z,23.70
2022-12-01T19:21:29.587Z,23.73
2022-12-01T19:24:32.884Z,22.35
2022-12-01T19:27:35.427Z,24.10
2022-12-01T19:30:41.819Z,24.95
2022-12-01T19:33:47.255Z,23.80
2022-12-01T19:36:53.926Z,23.42
2022-12-01T19:39:56.490Z,24.08
2022-12-01T19:42:59.611Z,25.30
2022-12-01T19:46:11.505Z,23.65
2022-12-01T19:49:14.740Z,22.60
2022-12-01T19:52:17.345Z,23.87
2022-12-01T19:55:20.498Z,23.35
2022-12-01T19:58:24.947Z,23.83
2022-12-01T20:01:28.773Z,25.98
2022-12-01T20:04:32.000Z,27.13
2022-12-01T20:07:35.402Z,25.62
2022-12-01T20:13:43.151Z,25.00
2022-12-01T20:16:45.975Z,26.20
2022-12-01T20:19:48.824Z,26.55
2022-12-01T20:22:51.562Z,26.40
2022-12-01T20:25:54.560Z,37.78
2022-12-01T20:29:01.395Z,30.60
2022-12-01T20:32:04.779Z,27.80
2022-12-01T20:35:07.853Z,24.58
2022-12-01T20:38:11.966Z,26.50
2022-12-01T20:41:18.680Z,25.45
2022-12-01T20:44:21.897Z,22.35
2022-12-01T20:47:24.850Z,22.45
2022-12-01T20:50:27.678Z,20.27
2022-12-01T20:53:30.800Z,21.67
2022-12-01T20:56:36.561Z,22.60
2022-12-01T20:59:39.407Z,22.50
2022-12-01T21:02:43.746Z,21.27
2022-12-01T21:05:46.640Z,21.62
2022-12-01T21:08:50.418Z,21.27
2022-12-01T21:12:20.906Z,21.30
2022-12-01T21:15:29.839Z,22.13
2022-12-01T21:18:49.861Z,22.25
2022-12-01T21:21:52.701Z,23.15
2022-12-01T21:25:11.373Z,20.75
2022-12-01T21:28:23.737Z,20.20
2022-12-01T21:31:27.183Z,19.42
2022-12-01T21:37:32.688Z,22.37
2022-12-01T21:40:35.687Z,21.80
2022-12-01T21:43:38.800Z,20.83
2022-12-01T21:46:42.500Z,25.25
2022-12-01T21:49:45.849Z,26.20
2022-12-01T21:52:49.286Z,25.52
2022-12-01T21:59:06.723Z,25.33
2022-12-01T22:02:31.084Z,23.67
2022-12-01T22:05:41.565Z,23.73
2022-12-01T22:08:46.681Z,23.15
2022-12-01T22:11:53.936Z,23.00
2022-12-01T22:15:01.992Z,23.02
2022-12-01T22:18:19.823Z,23.73
2022-12-01T22:21:22.331Z,22.33
2022-12-01T22:24:53.268Z,22.30
2022-12-01T22:28:00.046Z,21.08
2022-12-01T22:31:11.809Z,23.42
2022-12-01T22:34:16.626Z,20.80
2022-12-01T22:37:22.604Z,21.70
2022-12-01T22:40:28.170Z,22.17
2022-12-01T22:43:44.835Z,21.52
2022-12-01T22:46:47.999Z,20.10
2022-12-01T22:49:51.329Z,21.02
2022-12-01T22:52:59.246Z,22.02
2022-12-01T22:56:07.745Z,20.20
2022-12-01T22:59:22.224Z,20.05
2022-12-01T23:02:33.147Z,20.40
2022-12-01T23:05:35.899Z,19.75
2022-12-01T23:08:39.001Z,19.37
2022-12-01T23:11:49.435Z,20.50
2022-12-01T23:14:56.529Z,19.52
2022-12-01T23:18:20.188Z,20.92
2022-12-01T23:21:24.364Z,19.37
2022-12-01T23:24:29.740Z,19.92
2022-12-01T23:27:37.635Z,20.00
2022-12-01T23:33:44.233Z,18.83
2022-12-01T23:36:50.071Z,20.33
2022-12-01T23:39:56.317Z,17.80
2022-12-01T23:43:10.126Z,17.83
2022-12-01T23:46:19.114Z,18.33
2022-12-01T23:49:30.035Z,18.23
2022-12-01T23:52:36.554Z,19.62
2022-12-01T23:55:39.578Z,20.23
2022-12-01T23:58:44.680Z,20.40
